地図

経路データ

SID SEASON NUMBER BASIN SUBBASIN NAME ISO_TIME NATURE LAT LON WMO_WIND WMO_PRES WMO_AGENCY TRACK_TYPE DIST2LAND LANDFALL IFLAG USA_AGENCY USA_ATCF_ID USA_LAT USA_LON USA_RECORD USA_STATUS USA_WIND USA_PRES USA_SSHS USA_R34_NE USA_R34_SE USA_R34_SW USA_R34_NW USA_R50_NE USA_R50_SE USA_R50_SW USA_R50_NW USA_R64_NE USA_R64_SE USA_R64_SW USA_R64_NW USA_POCI USA_ROCI USA_RMW USA_EYE TOKYO_LAT TOKYO_LON TOKYO_GRADE TOKYO_WIND TOKYO_PRES TOKYO_R50_DIR TOKYO_R50_LONG TOKYO_R50_SHORT TOKYO_R30_DIR TOKYO_R30_LONG TOKYO_R30_SHORT TOKYO_LAND CMA_LAT CMA_LON CMA_CAT CMA_WIND CMA_PRES HKO_LAT HKO_LON HKO_CAT HKO_WIND HKO_PRES NEWDELHI_LAT NEWDELHI_LON NEWDELHI_GRADE NEWDELHI_WIND NEWDELHI_PRES NEWDELHI_CI NEWDELHI_DP NEWDELHI_POCI REUNION_LAT REUNION_LON REUNION_TYPE REUNION_WIND REUNION_PRES REUNION_TNUM REUNION_CI REUNION_RMW REUNION_R34_NE REUNION_R34_SE REUNION_R34_SW REUNION_R34_NW REUNION_R50_NE REUNION_R50_SE REUNION_R50_SW REUNION_R50_NW REUNION_R64_NE REUNION_R64_SE REUNION_R64_SW REUNION_R64_NW BOM_LAT BOM_LON BOM_TYPE BOM_WIND BOM_PRES BOM_TNUM BOM_CI BOM_RMW BOM_R34_NE BOM_R34_SE BOM_R34_SW BOM_R34_NW BOM_R50_NE BOM_R50_SE BOM_R50_SW BOM_R50_NW BOM_R64_NE BOM_R64_SE BOM_R64_SW BOM_R64_NW BOM_ROCI BOM_POCI BOM_EYE BOM_POS_METHOD BOM_PRES_METHOD NADI_LAT NADI_LON NADI_CAT NADI_WIND NADI_PRES WELLINGTON_LAT WELLINGTON_LON WELLINGTON_WIND WELLINGTON_PRES DS824_LAT DS824_LON DS824_STAGE DS824_WIND DS824_PRES TD9636_LAT TD9636_LON TD9636_STAGE TD9636_WIND TD9636_PRES TD9635_LAT TD9635_LON TD9635_WIND TD9635_PRES TD9635_ROCI NEUMANN_LAT NEUMANN_LON NEUMANN_CLASS NEUMANN_WIND NEUMANN_PRES MLC_LAT MLC_LON MLC_CLASS MLC_WIND MLC_PRES USA_GUST BOM_GUST BOM_GUST_PER REUNION_GUST REUNION_GUST_PER USA_SEAHGT USA_SEARAD_NE USA_SEARAD_SE USA_SEARAD_SW USA_SEARAD_NW STORM_SPEED STORM_DIR
1972145N31282 1972 36 NA NA ALPHA 1972-05-23 18:00:00 SS 31.2000 -78.2000 25 1004 hurdat_atl main 230 230 O_____________ hurdat_atl AL011972 31.2000 -78.2000 SD 25 1004 -2 13 66
1972145N31282 1972 36 NA NA ALPHA 1972-05-23 21:00:00 SS 31.4562 -77.5211 main 244 244 P_____________ AL011972 31.4562 -77.5211 SD 27 1003 -2 11 64
1972145N31282 1972 36 NA NA ALPHA 1972-05-24 00:00:00 SS 31.7000 -77.0000 30 hurdat_atl main 262 249 I_____________ hurdat_atl AL011972 31.7000 -77.0000 SD 30 1003 -2 8 54
1972145N31282 1972 36 NA NA ALPHA 1972-05-24 03:00:00 SS 31.9345 -76.7393 main 253 229 P_____________ AL011972 31.9345 -76.7393 SD 30 1003 -2 6 34
1972145N31282 1972 36 NA NA ALPHA 1972-05-24 06:00:00 SS 32.2000 -76.6000 30 1003 hurdat_atl main 229 209 O_____________ hurdat_atl AL011972 32.2000 -76.6000 SD 30 1003 -2 7 25
1972145N31282 1972 36 NA NA ALPHA 1972-05-24 09:00:00 SS 32.5424 -76.4074 main 215 199 P_____________ AL011972 32.5424 -76.4074 SD 30 -2 8 26
1972145N31282 1972 36 NA NA ALPHA 1972-05-24 12:00:00 SS 32.9000 -76.2000 30 hurdat_atl main 200 173 O_____________ hurdat_atl AL011972 32.9000 -76.2000 SD 30 -2 8 30
1972145N31282 1972 36 NA NA ALPHA 1972-05-24 15:00:00 SS 33.2151 -75.9426 main 176 152 P_____________ AL011972 33.2151 -75.9426 SD 30 -2 7 35
1972145N31282 1972 36 NA NA ALPHA 1972-05-24 18:00:00 SS 33.5000 -75.7000 30 hurdat_atl main 152 135 O_____________ hurdat_atl AL011972 33.5000 -75.7000 SD 30 -2 7 31
1972145N31282 1972 36 NA NA ALPHA 1972-05-24 21:00:00 SS 33.7724 -75.5348 main 135 127 P_____________ AL011972 33.7724 -75.5348 SD 30 -2 6 27
1972145N31282 1972 36 NA NA ALPHA 1972-05-25 00:00:00 SS 34.0000 -75.4000 30 1004 hurdat_atl main 127 120 O_____________ hurdat_atl AL011972 34.0000 -75.4000 SD 30 1004 -2 5 29
1972145N31282 1972 36 NA NA ALPHA 1972-05-25 03:00:00 SS 34.1799 -75.2649 main 120 120 P_____________ AL011972 34.1799 -75.2649 SD 30 -2 4 39
1972145N31282 1972 36 NA NA ALPHA 1972-05-25 06:00:00 SS 34.3000 -75.1000 30 hurdat_atl main 128 128 O_____________ hurdat_atl AL011972 34.3000 -75.1000 SD 30 -2 4 58
1972145N31282 1972 36 NA NA ALPHA 1972-05-25 09:00:00 SS 34.3875 -74.8651 main 139 139 P_____________ AL011972 34.3875 -74.8651 SD 30 -2 4 76
1972145N31282 1972 36 NA NA ALPHA 1972-05-25 12:00:00 SS 34.4000 -74.6000 30 hurdat_atl main 164 164 O_____________ hurdat_atl AL011972 34.4000 -74.6000 SD 30 -2 4 99
1972145N31282 1972 36 NA NA ALPHA 1972-05-25 15:00:00 SS 34.3224 -74.3574 main 185 185 P_____________ AL011972 34.3224 -74.3574 SD 30 -2 5 116
1972145N31282 1972 36 NA NA ALPHA 1972-05-25 18:00:00 SS 34.2000 -74.1000 30 hurdat_atl main 213 213 O_____________ hurdat_atl AL011972 34.2000 -74.1000 SD 30 -2 6 103
1972145N31282 1972 36 NA NA ALPHA 1972-05-25 21:00:00 SS 34.1974 -73.6786 main 239 239 P_____________ AL011972 34.1974 -73.6786 SD 37 -2 5 112
1972145N31282 1972 36 NA NA ALPHA 1972-05-26 00:00:00 SS 34.0000 -73.5000 45 hurdat_atl main 268 268 O_____________ hurdat_atl AL011972 34.0000 -73.5000 SS 45 -2 9 193
1972145N31282 1972 36 NA NA ALPHA 1972-05-26 03:00:00 SS 33.3030 -73.9256 main 283 276 P_____________ AL011972 33.3030 -73.9256 SS 47 -2 18 211
1972145N31282 1972 36 NA NA ALPHA 1972-05-26 06:00:00 SS 32.5000 -74.6000 50 hurdat_atl main 301 301 O_____________ hurdat_atl AL011972 32.5000 -74.6000 SS 50 -2 17 219
1972145N31282 1972 36 NA NA ALPHA 1972-05-26 09:00:00 SS 31.9529 -75.2174 main 324 324 P_____________ AL011972 31.9529 -75.2174 SS 55 -2 13 226
1972145N31282 1972 36 NA NA ALPHA 1972-05-26 12:00:00 SS 31.6000 -75.7000 60 1001 hurdat_atl main 334 331 O_____________ hurdat_atl AL011972 31.6000 -75.7000 SS 60 1001 -2 7 227
1972145N31282 1972 36 NA NA ALPHA 1972-05-26 15:00:00 SS 31.4471 -75.8590 main 340 340 P_____________ AL011972 31.4471 -75.8590 SS 57 -2 3 221
1972145N31282 1972 36 NA NA ALPHA 1972-05-26 18:00:00 SS 31.4000 -75.9000 55 hurdat_atl main 340 340 O_____________ hurdat_atl AL011972 31.4000 -75.9000 SS 55 -2 2 222
1972145N31282 1972 36 NA NA ALPHA 1972-05-26 21:00:00 SS 31.3147 -75.9972 main 345 340 P_____________ AL011972 31.3147 -75.9972 SS 52 -2 3 232
1972145N31282 1972 36 NA NA ALPHA 1972-05-27 00:00:00 SS 31.2000 -76.2000 50 hurdat_atl main 344 340 O_____________ hurdat_atl AL011972 31.2000 -76.2000 SS 50 -2 6 237
1972145N31282 1972 36 NA NA ALPHA 1972-05-27 03:00:00 SS 30.9998 -76.5753 main 345 327 P_____________ AL011972 30.9998 -76.5753 SS 47 -2 9 243
1972145N31282 1972 36 NA NA ALPHA 1972-05-27 06:00:00 SS 30.8000 -77.1000 45 hurdat_atl main 327 302 O_____________ hurdat_atl AL011972 30.8000 -77.1000 SS 45 -2 10 250
1972145N31282 1972 36 NA NA ALPHA 1972-05-27 09:00:00 SS 30.6546 -77.6904 main 302 269 P_____________ AL011972 30.6546 -77.6904 SS 50 -2 11 260
1972145N31282 1972 36 NA NA ALPHA 1972-05-27 12:00:00 SS 30.6000 -78.4000 55 hurdat_atl main 269 209 O_____________ hurdat_atl AL011972 30.6000 -78.4000 SS 55 -2 13 271
1972145N31282 1972 36 NA NA ALPHA 1972-05-27 15:00:00 SS 30.6701 -79.2269 main 209 123 P_____________ AL011972 30.6701 -79.2269 SS 52 -2 15 278
1972145N31282 1972 36 NA NA ALPHA 1972-05-27 18:00:00 SS 30.8000 -80.1000 50 991 hurdat_atl main 123 47 O_____________ hurdat_atl AL011972 30.8000 -80.1000 SS 50 991 -2 15 281
1972145N31282 1972 36 NA NA ALPHA 1972-05-27 21:00:00 SS 30.9522 -80.9290 main 47 0 P_____________ AL011972 30.9522 -80.9290 SS 40 996 -2 14 278
1972145N31282 1972 36 NA NA ALPHA 1972-05-28 00:00:00 SS 31.0000 -81.7000 30 hurdat_atl main 0 0 I_____________ hurdat_atl AL011972 31.0000 -81.7000 SD 30 1001 -2 13 264
1972145N31282 1972 36 NA NA ALPHA 1972-05-28 03:00:00 SS 30.8171 -82.3957 main 0 0 P_____________ AL011972 30.8171 -82.3957 SD 30 1006 -2 12 246
1972145N31282 1972 36 NA NA ALPHA 1972-05-28 06:00:00 SS 30.5000 -83.0000 30 1011 hurdat_atl main 0 0 O_____________ hurdat_atl AL011972 30.5000 -83.0000 SD 30 1011 -2 12 236
1972145N31282 1972 36 NA NA ALPHA 1972-05-28 09:00:00 SS 30.1573 -83.5450 main 0 0 P_____________ AL011972 30.1573 -83.5450 SD 30 1011 -2 11 231
1972145N31282 1972 36 NA GM ALPHA 1972-05-28 12:00:00 SS 29.8000 -84.0000 30 1012 hurdat_atl main 29 24 O_____________ hurdat_atl AL011972 29.8000 -84.0000 SD 30 1012 -2 10 228
1972145N31282 1972 36 NA GM ALPHA 1972-05-28 15:00:00 SS 29.4774 -84.4023 main 44 44 P_____________ AL011972 29.4774 -84.4023 SD 30 1012 -2 9 225
1972145N31282 1972 36 NA GM ALPHA 1972-05-28 18:00:00 SS 29.2000 -84.7000 30 1013 hurdat_atl main 59 59 O_____________ hurdat_atl AL011972 29.2000 -84.7000 SD 30 1013 -2 7 221
1972145N31282 1972 36 NA GM ALPHA 1972-05-28 21:00:00 SS 28.9849 -84.8872 main 78 78 P_____________ AL011972 28.9849 -84.8872 SD 27 -2 5 213
1972145N31282 1972 36 NA GM ALPHA 1972-05-29 00:00:00 SS 28.8000 -85.0000 25 hurdat_atl main 100 100 O_____________ hurdat_atl AL011972 28.8000 -85.0000 SD 25 -2 4 206
1972145N31282 1972 36 NA GM ALPHA 1972-05-29 03:00:00 SS 28.6150 -85.0998 main 122 122 P_____________ AL011972 28.6150 -85.0998 SD 25 -2 4 204
1972145N31282 1972 36 NA GM ALPHA 1972-05-29 06:00:00 SS 28.4000 -85.2000 25 hurdat_atl main 145 145 O_____________ hurdat_atl AL011972 28.4000 -85.2000 SD 25 -2 5 203
1972145N31282 1972 36 NA GM ALPHA 1972-05-29 09:00:00 SS 28.1201 -85.3378 main 178 178 P_____________ AL011972 28.1201 -85.3378 SD 25 -2 7 204
1972145N31282 1972 36 NA GM ALPHA 1972-05-29 12:00:00 SS 27.8000 -85.5000 25 1013 hurdat_atl main 212 O_____________ hurdat_atl AL011972 27.8000 -85.5000 SD 25 1013 -2 7 204

IBTrACS Databaseについて

本データベースは、米国NOAAが公開する1842年以降の世界の熱帯低気圧のベストトラックデータアーカイブInternational Best Track Archive for Climate Stewardship (IBTrACS)を、ウェブで閲覧しやすい形式に変換したものです。

最終更新日:2021-10-08